NCAR-RAP Real-Time Weather Data

Output produced by METARs form (21 May 2019  10:35 UTC)
found at http://weather.rap.ucar.edu/surface/
 
RJOM 211000Z 19008KT 9999 FEW035 BKN/// 19/12 Q1005
RJOM 210900Z 20007KT 9999 FEW035 BKN/// 19/12 Q1005
RJOM 210800Z 22009KT 9999 FEW030 SCT/// 19/14 Q1005
RJOM 210700Z 22008KT 9999 FEW030 SCT/// 19/14 Q1005
RJOM 210600Z 23009KT 9999 FEW035 20/14 Q1005
RJOM 210500Z 24010KT 9999 FEW030 BKN/// 19/13 Q1005
RJOM 210400Z 28011KT 9999 FEW030 SCT/// 20/13 Q1005
RJOM 210300Z 30009KT 220V330 9999 FEW030 SCT/// 20/13 Q1005
RJOM 210200Z 34007KT 9999 FEW025 SCT/// 21/12 Q1006
RJOM 210100Z 35009KT 9999 FEW025 BKN/// 19/12 Q1006
RJOM 210000Z 33006KT 9999 FEW025 BKN/// 18/14 Q1006
RJOM 202300Z 33003KT 9999 FEW020 BKN/// 17/14 Q1006
RJOM 202200Z 13004KT 9999 FEW020 BKN/// 17/15 Q1006
RJOM 202110Z 14003KT 9999 FEW025 BKN/// 16/14 Q1006 RMK 1CU025 A2971
RJOM 201200Z 12009KT 9999 -SHRA FEW015 BKN030 BKN060 19/18 Q1004
RJOM 201145Z 13008KT 9999 -SHRA FEW015 BKN030 BKN050 19/18 Q1004 RMK 1CU015 5CU030 6SC050 A2966
RJOM 201130Z 12008KT 5000 SHRA BR FEW010 SCT020 BKN045 19/18 Q1004 RMK 1ST010 3CU020 5SC045 A2966
RJOM 201100Z 17008KT 120V200 5000 -SHRA BR FEW002 SCT010 FEW025CB BKN040 18/18 Q1004
RJOM 201047Z 20010KT 3000 SHRA BR FEW002 SCT010 FEW025CB BKN035 18/18 Q1004 RMK 1ST002 3ST010 1CB025 5CU035 A2967 CB 15KM SE MOV NE
RJOM 201028Z 21010KT 1800 SHRA BR FEW002 SCT007 FEW025CB BKN035 18/18 Q1004 RMK 1ST002 3ST007 1CB025 6CU035 A2967 CB 30KM SW MOV NE
RJOM 201000Z 27008KT 220V290 2500 SHRA BR FEW004 SCT010 FEW025CB BKN035 18/18 Q1004
RJOM 200941Z 29014KT 2000 +SHRA BR FEW008 SCT015 FEW025CB BKN035 18/18 Q1003 RMK 1ST008 3CU015 1CB025 5CU035 A2964 P/RR CB 20KM NW MOV NE RI++
RJOM 200936Z 29014KT 5000 -SHRA BR FEW008 SCT015 FEW025CB BKN035 18/18 Q1003 RMK 1ST008 3CU015 1CB025 5CU035 A2963 P/RR CB 20KM NW MOV NE
RJOM 200900Z 03005KT 340V050 9999 -SHRA FEW010 SCT025 FEW030CB BKN040 21/20 Q1001
RJOM 200800Z 01007KT 9999 -SHRA FEW015 SCT030 BKN050 21/18 Q1002
RJOM 200700Z 31007KT 9999 -SHRA FEW015 SCT035 BKN050 21/18 Q1003
RJOM 200600Z 26004KT 200V290 9999 VCSH FEW015 BKN050 BKN070 22/18 Q1003
RJOM 200500Z 26003KT 170V350 9999 -SHRA FEW020 SCT035 BKN050 23/17 Q1004
RJOM 200400Z VRB02KT 9999 FEW025 BKN050 22/17 Q1005
RJOM 200300Z VRB07KT 9999 -SHRA FEW025 SCT040 BKN050 21/17 Q1005
RJOM 200242Z 20007KT 120V230 9999 FEW025 SCT040 BKN060 27/17 Q1005 RMK 1CU025 3CU040 6SC060 A2970
RJOM 200210Z 12017G27KT 9999 FEW025 SCT040 BKN120 29/18 Q1005 RMK 1CU025 3CU040 6AC120 A2969
RJOM 200200Z 12017KT 9999 FEW025 SCT040 BKN120 28/18 Q1005
RJOM 200101Z 13015G27KT 9999 FEW030 SCT040 BKN150 27/18 Q1006 RMK 1CU030 3CU040 5AC150 A2972
RJOM 200100Z 13014G27KT 9999 FEW030 SCT040 BKN150 27/17 Q1006
RJOM 200000Z 36009KT 330V050 9999 FEW012 SCT040 BKN150 21/17 Q1007
RJOM 192300Z 36014KT 9999 FEW015 SCT040 BKN150 19/17 Q1007
RJOM 192200Z 02008KT 360V080 9999 -SHRA FEW015 SCT025 BKN140 19/17 Q1007
RJOM 192110Z 02007KT 9999 VCSH FEW010 SCT025 BKN130 18/17 Q1008 RMK 1ST010 3CU025 5AC130 A2978
RJOM 191230Z 14012KT 9999 -SHRA FEW025 SCT030 FEW035CB BKN050 22/15 Q1013 RMK 1CU025 3CU030 1CB035 5SC050 A2991 LIGHTNING SW
RJOM 191229Z 20007KT 130V240 9999 -SHRA FEW025 SCT030 FEW035CB BKN050 23/15 Q1013 RMK 1CU025 3CU030 1CB035 5SC050 A2992 LIGHTNING SW
RJOM 191200Z 14013KT 9999 -SHRA FEW025 SCT030 FEW035CB BKN070 23/15 Q1012
RJOM 191143Z 13016KT 9999 -SHRA FEW025 SCT030 FEW035CB BKN050 23/14 Q1012 RMK 1CU025 3CU030 1CB035 5SC050 A2991 CB SW
RJOM 191110Z 14013KT 9999 TS FEW025 SCT030 SCT035CB BKN050 23/15 Q1013 RMK 1CU025 3CU030 3CB035 5SC050 A2991 MOD TS OHD MOV E
RJOM 191100Z 15011KT 9999 FEW025 SCT040 BKN130 23/15 Q1012
RJOM 191000Z 15010KT 120V180 9999 FEW025 SCT040 BKN070 24/15 Q1012
RJOM 190900Z 16008KT 130V200 9999 FEW025 SCT050 BKN070 24/15 Q1012
RJOM 190800Z 15011KT 9999 FEW025 SCT050 BKN140 24/15 Q1012
RJOM 190700Z 15010KT 9999 -SHRA FEW025 SCT035 BKN070 23/16 Q1012
RJOM 190600Z 11016KT 9999 FEW025 SCT040 BKN080 25/15 Q1012
RJOM 190545Z 10012KT 9999 FEW025 SCT040 BKN080 25/15 Q1012 RMK 1CU025 3CU040 5AC080 A2991
RJOM 190500Z 36008KT 9999 -SHRA FEW015 SCT040 BKN070 22/17 Q1013
RJOM 190440Z 03010KT 9999 -SHRA FEW025 SCT040 BKN070 23/16 Q1013 RMK 1CU025 3CU040 5AC070 A2992
RJOM 190437Z 09009KT 050V130 9999 -SHRA FEW025 SCT040 BKN070 23/16 Q1013 RMK 1CU025 3CU040 5AC070 A2992
RJOM 190400Z 15010KT 9999 -SHRA FEW025 SCT040 BKN130 23/15 Q1013
RJOM 190300Z 16011KT 120V190 9999 -SHRA FEW025 SCT040 BKN070 24/15 Q1014
RJOM 190200Z 15011KT 130V190 9999 FEW030 SCT130 BKN150 25/14 Q1014
RJOM 190138Z 15010KT 9999 FEW030 BKN140 BKN/// 27/14 Q1013 RMK 1CU030 5AC140 A2993
RJOM 190130Z 35008KT 320V070 9999 FEW030 BKN140 BKN/// 27/14 Q1013 RMK 1CU030 5AC140 A2994
RJOM 190126Z 13010KT 100V170 9999 FEW030 BKN140 BKN/// 27/14 Q1013 RMK 1CU030 5AC140 A2994
RJOM 190100Z 35011KT 310V020 9999 FEW030 BKN140 24/16 Q1014
RJOM 190000Z 01008KT 9999 FEW030 SCT140 23/16 Q1014
RJOM 182300Z 01012KT 9999 FEW030 22/15 Q1014